TENO2: Tenkiller Lake

Data processed at Wed Jan 17 2018 23:58


All information presented herein is the property of the government of the United States of America and may be revised or deleted at any time without prior notice.
Dissemination of this information without the expressed written consent of the Public Affairs Office, Tulsa District U.S. Army Corps of Engineers is strictly prohibited.
These data are gathered electronically and, as presented, have not undergone any form of quality control. These data are not guaranteed to be valid or correct.
Go to home page.
Go to station list.

Upstream stations:

Downstream station:
Previous Day
Next Day
Current Day
    
SHEF ID:       TENO2     Tenkiller Lake
STATION TYPE:  Reservoir
Normal Pool:  Bottom =   594.50, Top =   632.00

               PRECIP PRECIP(A) ELEVATION   STORAGE   TW-ELEV    INFLOW   RELEASE  AIR-TEMP  WIND-DIRWIND-SPEED REL-HUMID SOLAR-RAD   VOLTAGE  BAT-LOAD
                   in        in        ft     ac-ft        ft       cfs       cfs         F       deg       mph         %      W/m2      volt      volt
              Ccp-Rev   Ccp-Rev   Ccp-Rev   Ccp-Rev   Ccp-Rev  Regi-Rev  Regi-Rev   Ccp-Rev   Ccp-Rev   Ccp-Rev   Ccp-Rev   Ccp-Rev   Ccp-Rev   Ccp-Rev
(US/Central)
01/15 00:00      0.00      0.00    626.05    594971    482.11       285         0     29.88    234.20      0.23     76.55      1.00     13.71     13.18
01/15 01:00      0.00      0.00    626.04    594853    482.10       285         0     27.36    266.50      0.30     85.65      0.00     13.71     13.12
01/15 02:00      0.00      0.00    626.05    594971    482.10       190         0     26.80    257.50      0.32     88.76      0.00     13.72     13.18
01/15 03:00      0.00      0.00    626.05    594971    482.10       435         0     29.44    234.30      0.31     70.39      0.00     13.71     13.24
01/15 04:00      0.00      0.00    626.04    594853    482.10      1077         0     27.57    290.90      0.21     86.99      1.00     13.71     13.18
01/15 05:00      0.00      0.00    626.05    594971    483.59      1084       273     26.91    233.20      0.32     93.70      0.00     13.71     13.18
01/15 06:00      0.00      0.00    626.05    594971    486.81      1086      3685     31.96    278.30      0.28     65.32      0.00     13.71     13.18
01/15 07:00      0.00      0.00    626.02    594617    486.91      1086      3784     35.38    211.80      1.90     59.94      1.00     13.72     13.18
01/15 08:00      0.00      0.00    626.00    594381    486.96       745      3784     32.63    149.20      0.29     78.56      5.00     13.72     13.12
01/15 09:00      0.00      0.00    625.96    593915    486.87         8      3784     34.39    201.30      0.15     67.57     62.00     13.72     13.07
01/15 10:00      0.00      0.00    625.90    593217    486.96         1      3784     38.44    183.20      1.45     58.60    122.00     13.73     13.12
01/15 11:00      0.00      0.00    625.94    593683    486.64         0      3685     39.67    190.60      3.48     66.96    186.00     13.72     13.12
01/15 12:00      0.00      0.00    625.96    593915    482.55         0       274     33.30    201.80      4.55     71.73     92.00     13.72     13.18
01/15 13:00      0.00      0.00    625.90    593217    482.19         0         0     32.85    200.10      4.34     65.99    103.00     13.71     13.18
01/15 14:00      0.00      0.00    625.91    593333    482.14         0         0     29.44    204.40      4.89     62.14    110.00     13.72     13.18
01/15 15:00      0.00      0.00    625.93    593566    482.13         8         0     26.15    196.50      4.84     63.92    165.00     13.72     13.24
01/15 16:00      0.00      0.00    625.93    593566    482.11        39         0     23.72    203.30      4.77     60.00     44.00     13.72     13.18
01/15 17:00      0.00      0.00    625.91    593333    482.98       435       273     21.97    213.00      4.47     58.30     15.00     13.71     13.18
01/15 18:00      0.00      0.00    625.90    593217    485.31       435      1769     19.99    219.10      5.12     56.40      2.00     13.71     13.24
01/15 19:00      0.00      0.00    625.87    592868    486.35       435      3784     19.67    203.50      4.83     64.52      0.00     13.71     13.24
01/15 20:00      0.00      0.00    625.89    593101    485.62       427      1878     18.57    212.40      5.03     57.50      0.00     13.71     13.24
01/15 21:00      0.00      0.00    625.88    592984    485.22       396      1878     18.23    204.80      4.83     59.46      0.00     13.71     13.18
01/15 22:00      0.00      0.00    625.86    592752    482.34         0         0     17.80    207.50      5.08     61.41      1.00     13.71     13.12
01/15 23:00      0.00      0.00    625.87    592868    482.14         0         0     17.47    215.70      5.35     61.29      1.00     13.71     13.12